createdAt,value
2023-03-21T12:32:30.345Z,2.20
2023-03-21T12:33:18.448Z,2.40
2023-03-21T12:34:18.546Z,2.20
2023-03-21T12:35:19.105Z,2.10
2023-03-21T12:36:18.572Z,2.20
2023-03-21T12:37:18.542Z,2.20
2023-03-21T12:38:18.475Z,1.90
2023-03-21T12:39:18.569Z,2.40
2023-03-21T12:40:19.031Z,2.10
2023-03-21T12:41:18.600Z,2.20
2023-03-21T12:42:18.620Z,2.00
2023-03-21T12:43:18.611Z,1.80
2023-03-21T12:44:18.614Z,2.00
2023-03-21T12:45:18.653Z,2.10
2023-03-21T12:46:18.674Z,2.00
2023-03-21T12:47:18.561Z,1.90
2023-03-21T12:48:18.627Z,2.10
2023-03-21T12:49:18.585Z,2.20
2023-03-21T12:50:18.660Z,2.50
2023-03-21T12:51:18.736Z,2.00
2023-03-21T12:52:18.632Z,1.90
2023-03-21T12:53:18.605Z,1.80
2023-03-21T12:54:18.543Z,1.90
2023-03-21T12:55:18.694Z,1.90
2023-03-21T12:56:18.586Z,2.10
2023-03-21T12:57:18.644Z,1.90
2023-03-21T12:58:18.672Z,1.70
2023-03-21T12:59:18.705Z,1.80
2023-03-21T13:00:19.168Z,1.90
2023-03-21T13:01:18.794Z,2.30
2023-03-21T13:02:18.766Z,2.30
2023-03-21T13:03:22.864Z,2.30
2023-03-21T13:04:18.822Z,2.00
2023-03-21T13:05:18.849Z,1.90
2023-03-21T13:06:18.754Z,2.00
2023-03-21T13:07:18.764Z,2.10
2023-03-21T13:08:18.809Z,2.50
2023-03-21T13:09:23.376Z,2.20
2023-03-21T13:10:19.312Z,2.60
2023-03-21T13:11:18.785Z,2.40
2023-03-21T13:12:18.876Z,2.20
2023-03-21T13:13:18.840Z,2.40
2023-03-21T13:14:18.774Z,2.10
2023-03-21T13:15:24.181Z,2.80
2023-03-21T13:16:18.864Z,2.20
2023-03-21T13:17:18.784Z,2.30
2023-03-21T13:18:18.770Z,2.30
2023-03-21T13:19:18.705Z,2.80
2023-03-21T13:20:18.816Z,2.30
2023-03-21T13:21:18.871Z,2.70
2023-03-21T13:22:18.805Z,2.60
2023-03-21T13:23:18.750Z,2.20
2023-03-21T13:24:18.779Z,2.20
2023-03-21T13:25:18.860Z,2.20
2023-03-21T13:26:18.750Z,2.00
2023-03-21T13:27:18.795Z,2.10
2023-03-21T13:28:18.794Z,2.40
2023-03-21T13:29:18.912Z,2.40
2023-03-21T13:30:18.982Z,4.50
2023-03-21T13:31:18.911Z,3.90
2023-03-21T13:32:18.952Z,2.30
2023-03-21T13:33:18.803Z,2.20
2023-03-21T13:34:19.056Z,2.80
2023-03-21T13:35:18.796Z,4.20
2023-03-21T13:36:18.967Z,3.60
2023-03-21T13:37:18.886Z,3.50
2023-03-21T13:38:18.848Z,2.50
2023-03-21T13:39:18.831Z,13.80
2023-03-21T13:40:18.992Z,3.00
2023-03-21T13:41:18.771Z,2.70
2023-03-21T13:42:18.916Z,2.60
2023-03-21T13:43:25.484Z,2.20
2023-03-21T13:44:18.922Z,2.90
2023-03-21T13:45:18.933Z,3.20
2023-03-21T13:46:18.912Z,3.10
2023-03-21T13:47:18.940Z,2.70
2023-03-21T13:48:18.928Z,3.00
2023-03-21T13:49:18.959Z,2.60
2023-03-21T13:50:18.994Z,2.60
2023-03-21T13:51:18.862Z,2.40
2023-03-21T13:52:18.912Z,2.60
2023-03-21T13:53:18.985Z,2.50
2023-03-21T13:54:18.934Z,1.90
2023-03-21T13:55:18.976Z,2.40
2023-03-21T13:56:18.922Z,2.30
2023-03-21T13:57:18.876Z,2.30
2023-03-21T13:58:18.950Z,1.70
2023-03-21T13:59:18.828Z,1.50
2023-03-21T14:00:19.096Z,1.80
2023-03-21T14:01:18.873Z,1.70
2023-03-21T14:02:18.958Z,1.90
2023-03-21T14:03:18.983Z,1.70
2023-03-21T14:04:18.826Z,1.80
2023-03-21T14:05:18.964Z,1.70
2023-03-21T14:06:19.039Z,1.60
2023-03-21T14:07:18.956Z,1.70
2023-03-21T14:08:27.882Z,1.50
2023-03-21T14:09:18.967Z,1.80
2023-03-21T14:10:19.389Z,1.90
2023-03-21T14:11:18.866Z,2.00
2023-03-21T14:12:18.974Z,2.40
2023-03-21T14:13:18.930Z,2.30
2023-03-21T14:14:18.968Z,2.40
2023-03-21T14:15:19.764Z,2.20
2023-03-21T14:16:19.050Z,2.10
2023-03-21T14:17:18.946Z,2.20
2023-03-21T14:18:28.106Z,1.80
2023-03-21T14:19:19.022Z,1.80
2023-03-21T14:20:19.029Z,2.10
2023-03-21T14:21:23.785Z,2.20
2023-03-21T14:22:18.987Z,2.40
2023-03-21T14:23:18.887Z,2.40
2023-03-21T14:24:18.925Z,2.20
2023-03-21T14:25:19.419Z,2.40
2023-03-21T14:26:18.896Z,2.50
2023-03-21T14:27:19.065Z,2.30
2023-03-21T14:28:19.017Z,2.20
2023-03-21T14:29:26.188Z,2.50
2023-03-21T14:30:19.036Z,2.40
2023-03-21T14:31:19.018Z,2.50
2023-03-21T14:32:18.976Z,2.20
2023-03-21T14:33:19.054Z,2.10
2023-03-21T14:34:19.008Z,2.10
2023-03-21T14:35:19.423Z,2.20
2023-03-21T14:36:19.086Z,2.10
2023-03-21T14:37:19.224Z,1.80
2023-03-21T14:38:19.163Z,1.90
2023-03-21T14:39:19.046Z,2.10
2023-03-21T14:40:19.069Z,1.80
2023-03-21T14:41:21.767Z,2.00
2023-03-21T14:42:18.959Z,1.80
2023-03-21T14:43:18.973Z,2.00
2023-03-21T14:44:21.217Z,1.70
2023-03-21T14:45:21.311Z,1.50
2023-03-21T14:46:23.169Z,1.80
2023-03-21T14:47:19.136Z,1.60
2023-03-21T14:48:19.221Z,2.20
2023-03-21T14:49:19.132Z,1.90
2023-03-21T14:50:19.511Z,1.80
2023-03-21T14:51:19.085Z,1.90
2023-03-21T14:52:21.519Z,1.90
2023-03-21T14:53:19.133Z,2.20
2023-03-21T14:54:19.218Z,2.10
2023-03-21T14:55:21.744Z,1.70
2023-03-21T14:56:19.601Z,1.60
2023-03-21T14:57:19.405Z,1.70
2023-03-21T14:58:19.421Z,1.40
2023-03-21T14:59:19.454Z,1.80
2023-03-21T15:00:19.461Z,1.90
2023-03-21T15:01:19.496Z,2.00
2023-03-21T15:02:22.309Z,2.10
2023-03-21T15:03:19.499Z,2.10
2023-03-21T15:04:19.463Z,2.00
2023-03-21T15:05:19.876Z,2.10
2023-03-21T15:06:19.465Z,2.10
2023-03-21T15:07:19.472Z,1.90
2023-03-21T15:08:19.539Z,2.10
2023-03-21T15:09:19.478Z,1.90
2023-03-21T15:10:19.451Z,2.10
2023-03-21T15:11:19.515Z,2.10
2023-03-21T15:12:19.493Z,2.20
2023-03-21T15:13:19.585Z,2.10
2023-03-21T15:14:19.522Z,2.20
2023-03-21T15:15:19.702Z,2.20
2023-03-21T15:16:19.577Z,2.20
2023-03-21T15:17:19.531Z,1.80
2023-03-21T15:18:19.482Z,2.00
2023-03-21T15:19:19.555Z,1.60
2023-03-21T15:20:19.558Z,2.40
2023-03-21T15:21:19.460Z,2.30
2023-03-21T15:22:19.527Z,2.50
2023-03-21T15:23:19.580Z,2.20
2023-03-21T15:24:19.540Z,2.90
2023-03-21T15:25:19.635Z,2.50
2023-03-21T15:26:19.605Z,3.00
2023-03-21T15:27:19.499Z,2.50
2023-03-21T15:28:19.537Z,2.30
2023-03-21T15:29:19.524Z,2.20
2023-03-21T15:30:20.764Z,2.50
2023-03-21T15:31:19.629Z,2.50
2023-03-21T15:32:19.512Z,1.90
2023-03-21T15:33:19.581Z,2.80
2023-03-21T15:34:19.612Z,2.20
2023-03-21T15:35:19.452Z,2.50
2023-03-21T15:36:19.524Z,2.10
2023-03-21T15:37:19.447Z,2.60
2023-03-21T15:38:19.471Z,2.00
2023-03-21T15:39:19.656Z,2.40
2023-03-21T15:40:20.120Z,2.50
2023-03-21T15:41:19.665Z,2.10
2023-03-21T15:42:19.582Z,2.50
2023-03-21T15:43:19.612Z,2.20
2023-03-21T15:44:19.698Z,2.30
2023-03-21T15:45:19.675Z,2.50
2023-03-21T15:46:20.061Z,2.40
2023-03-21T15:47:19.662Z,2.60
2023-03-21T15:48:19.645Z,2.30
2023-03-21T15:49:19.510Z,2.10
2023-03-21T15:50:19.869Z,2.20
2023-03-21T15:51:19.606Z,1.90
2023-03-21T15:52:19.618Z,2.00
2023-03-21T15:53:19.549Z,2.10
2023-03-21T15:54:19.540Z,1.70
2023-03-21T15:55:19.740Z,1.80
2023-03-21T15:56:19.764Z,1.80
2023-03-21T15:57:19.707Z,1.80
2023-03-21T15:58:19.793Z,2.10
2023-03-21T15:59:19.862Z,2.10
2023-03-21T16:00:20.592Z,2.00
2023-03-21T16:01:20.016Z,1.70
2023-03-21T16:02:20.096Z,1.80
2023-03-21T16:03:19.973Z,2.20
2023-03-21T16:04:20.001Z,1.70
2023-03-21T16:05:19.900Z,2.30
2023-03-21T16:06:19.971Z,1.70
2023-03-21T16:07:20.029Z,1.90
2023-03-21T16:08:20.080Z,2.30
2023-03-21T16:09:20.021Z,2.00
2023-03-21T16:10:20.124Z,2.10
2023-03-21T16:11:20.096Z,2.20
2023-03-21T16:12:20.059Z,1.80
2023-03-21T16:13:20.233Z,1.90
2023-03-21T16:14:20.243Z,2.00
2023-03-21T16:15:20.195Z,1.80
2023-03-21T16:16:20.273Z,1.70
2023-03-21T16:17:20.152Z,1.90
2023-03-21T16:18:23.174Z,1.70
2023-03-21T16:19:20.261Z,1.80
2023-03-21T16:20:20.361Z,1.60
2023-03-21T16:21:20.288Z,1.80
2023-03-21T16:22:20.319Z,1.90
2023-03-21T16:23:20.383Z,2.00
2023-03-21T16:24:20.351Z,1.70
2023-03-21T16:25:20.307Z,2.10
2023-03-21T16:26:20.306Z,1.80
2023-03-21T16:27:20.370Z,1.80
2023-03-21T16:28:20.333Z,1.80
2023-03-21T16:29:20.286Z,2.40
2023-03-21T16:30:20.367Z,1.90
2023-03-21T16:31:20.332Z,2.00
2023-03-21T16:32:20.313Z,2.10
2023-03-21T16:33:20.341Z,1.90
2023-03-21T16:34:20.418Z,2.10
2023-03-21T16:35:22.365Z,1.90
2023-03-21T16:36:20.468Z,2.00
2023-03-21T16:37:20.450Z,1.80
2023-03-21T16:38:20.363Z,2.10
2023-03-21T16:39:20.287Z,1.80
2023-03-21T16:40:21.339Z,1.90
2023-03-21T16:41:20.233Z,1.80
2023-03-21T16:42:20.336Z,2.00
2023-03-21T16:43:20.356Z,2.00
2023-03-21T16:44:20.370Z,2.10
2023-03-21T16:45:20.343Z,2.10
2023-03-21T16:46:20.397Z,2.40
2023-03-21T16:47:20.375Z,1.90
2023-03-21T16:48:20.433Z,1.90
2023-03-21T16:49:20.411Z,1.90
2023-03-21T16:50:20.415Z,2.00
2023-03-21T16:51:20.346Z,2.10
2023-03-21T16:52:20.301Z,2.10
2023-03-21T16:53:20.393Z,2.30
2023-03-21T16:54:20.397Z,1.90
2023-03-21T16:55:20.988Z,2.00
2023-03-21T16:56:20.381Z,2.10
2023-03-21T16:57:20.283Z,2.10
2023-03-21T16:58:20.423Z,2.00
2023-03-21T16:59:20.409Z,2.00
2023-03-21T17:00:20.341Z,2.40
2023-03-21T17:01:20.507Z,2.20
2023-03-21T17:02:20.281Z,2.20
2023-03-21T17:03:20.468Z,2.10
2023-03-21T17:04:20.406Z,2.30
2023-03-21T17:05:20.316Z,2.20
2023-03-21T17:06:20.453Z,2.10
2023-03-21T17:07:20.418Z,2.30
2023-03-21T17:08:20.363Z,2.40
2023-03-21T17:09:20.411Z,2.00
2023-03-21T17:10:20.442Z,2.00
2023-03-21T17:11:20.392Z,2.30
2023-03-21T17:12:20.396Z,2.00
2023-03-21T17:13:20.334Z,2.30
2023-03-21T17:14:20.261Z,2.20
2023-03-21T17:15:20.385Z,2.40
2023-03-21T17:16:20.458Z,2.40
2023-03-21T17:17:20.451Z,2.30
2023-03-21T17:18:20.441Z,2.10
2023-03-21T17:19:20.432Z,2.40
2023-03-21T17:20:20.491Z,2.20
2023-03-21T17:21:20.318Z,2.00
2023-03-21T17:22:20.343Z,2.80
2023-03-21T17:23:20.498Z,2.40
2023-03-21T17:24:20.289Z,2.60
2023-03-21T17:25:20.666Z,2.80
2023-03-21T17:26:20.321Z,2.60
2023-03-21T17:27:20.501Z,2.70
2023-03-21T17:28:20.441Z,2.30
2023-03-21T17:29:20.436Z,2.80
2023-03-21T17:30:20.443Z,2.60
2023-03-21T17:31:20.654Z,2.50
2023-03-21T17:32:20.497Z,2.70
2023-03-21T17:33:20.622Z,2.90
2023-03-21T17:34:22.856Z,2.50
2023-03-21T17:35:20.548Z,2.50
2023-03-21T17:36:20.509Z,2.50
2023-03-21T17:37:20.577Z,2.30
2023-03-21T17:38:20.524Z,2.50
2023-03-21T17:39:20.571Z,2.40
2023-03-21T17:40:21.052Z,2.40
2023-03-21T17:41:20.668Z,2.70
2023-03-21T17:42:20.611Z,2.70
2023-03-21T17:43:20.633Z,2.90
2023-03-21T17:44:20.729Z,2.70
2023-03-21T17:45:21.077Z,2.70
2023-03-21T17:46:20.765Z,2.80
2023-03-21T17:47:20.804Z,2.40
2023-03-21T17:48:20.872Z,2.70
2023-03-21T17:49:20.764Z,2.50
2023-03-21T17:50:21.376Z,2.70
2023-03-21T17:51:20.819Z,3.10
2023-03-21T17:52:21.033Z,2.80
2023-03-21T17:53:20.884Z,2.70
2023-03-21T17:54:21.020Z,2.70
2023-03-21T17:55:21.355Z,2.60
2023-03-21T17:56:21.118Z,2.80
2023-03-21T17:57:21.123Z,2.90
2023-03-21T17:58:21.051Z,2.70
2023-03-21T17:59:21.031Z,3.50
2023-03-21T18:00:21.132Z,2.80
2023-03-21T18:01:21.191Z,2.80
2023-03-21T18:02:24.026Z,3.20
2023-03-21T18:03:21.047Z,3.10
2023-03-21T18:04:24.180Z,3.10
2023-03-21T18:05:26.495Z,2.90
2023-03-21T18:06:21.140Z,3.20
2023-03-21T18:07:50.043Z,2.80
2023-03-21T18:08:21.431Z,3.30
2023-03-21T18:09:21.560Z,2.70
2023-03-21T18:10:21.235Z,2.70
2023-03-21T18:11:21.243Z,3.20
2023-03-21T18:12:21.216Z,3.20
2023-03-21T18:13:21.206Z,2.80
2023-03-21T18:14:27.079Z,3.10
2023-03-21T18:15:22.705Z,2.90
2023-03-21T18:16:21.383Z,3.20
2023-03-21T18:17:21.108Z,2.50
2023-03-21T18:18:21.187Z,2.80
2023-03-21T18:19:21.295Z,2.90
2023-03-21T18:20:21.382Z,2.60
2023-03-21T18:21:22.777Z,2.90
2023-03-21T18:22:21.364Z,2.80
2023-03-21T18:23:23.279Z,2.70
2023-03-21T18:24:21.621Z,3.30
2023-03-21T18:25:24.481Z,3.00
2023-03-21T18:26:23.917Z,2.90
2023-03-21T18:27:21.762Z,3.30
2023-03-21T18:28:21.708Z,3.00
2023-03-21T18:30:41.342Z,2.80
2023-03-21T18:31:27.961Z,3.00
2023-03-21T18:32:21.447Z,3.10
2023-03-21T18:33:23.659Z,3.10
2023-03-21T18:34:21.480Z,2.80
2023-03-21T18:35:21.833Z,2.90
2023-03-21T18:36:25.425Z,3.20
2023-03-21T18:37:22.493Z,2.90
2023-03-21T18:38:21.453Z,2.80
2023-03-21T18:39:21.575Z,3.20
2023-03-21T18:40:21.699Z,3.00
2023-03-21T18:41:21.449Z,3.20
2023-03-21T18:42:23.591Z,3.10
2023-03-21T18:44:02.928Z,3.10
2023-03-21T18:44:24.309Z,3.10
2023-03-21T18:45:21.779Z,3.00
2023-03-21T18:46:26.581Z,2.70
2023-03-21T18:47:23.548Z,2.50
2023-03-21T18:48:21.654Z,2.60
2023-03-21T18:50:05.913Z,3.20
2023-03-21T18:50:24.783Z,2.90
2023-03-21T18:51:21.633Z,2.90
2023-03-21T18:52:26.417Z,2.50
2023-03-21T18:53:21.812Z,3.00
2023-03-21T18:54:23.601Z,2.70
2023-03-21T18:57:20.444Z,2.30
2023-03-21T18:57:36.432Z,2.40
2023-03-21T18:58:21.950Z,2.40
2023-03-21T18:59:21.720Z,2.80
2023-03-21T19:00:21.808Z,2.90
2023-03-21T19:01:24.198Z,2.80
2023-03-21T19:02:21.679Z,2.60
2023-03-21T19:03:35.351Z,2.90
2023-03-21T19:04:28.725Z,3.00
2023-03-21T19:05:21.711Z,3.20
2023-03-21T19:06:21.698Z,3.20
2023-03-21T19:07:21.606Z,3.00
2023-03-21T19:08:21.710Z,3.10
2023-03-21T19:09:29.505Z,3.00
2023-03-21T19:10:21.652Z,3.00
2023-03-21T19:11:21.746Z,3.30
2023-03-21T19:12:21.656Z,3.10
2023-03-21T19:13:21.945Z,3.40
2023-03-21T19:14:21.716Z,3.50
2023-03-21T19:15:21.735Z,3.40
2023-03-21T19:16:26.466Z,3.30
2023-03-21T19:18:53.077Z,3.10
2023-03-21T19:19:21.781Z,3.40
2023-03-21T19:20:22.047Z,3.60
2023-03-21T19:21:21.584Z,3.10
2023-03-21T19:22:21.627Z,3.40
2023-03-21T19:23:21.730Z,3.30
2023-03-21T19:24:27.715Z,3.30
2023-03-21T19:25:21.727Z,3.30
2023-03-21T19:26:21.740Z,3.20
2023-03-21T19:27:21.861Z,2.90
2023-03-21T19:28:21.735Z,3.10
2023-03-21T19:29:21.702Z,3.20
2023-03-21T19:30:21.764Z,3.10
2023-03-21T19:31:21.908Z,3.00
2023-03-21T19:32:21.768Z,2.90
2023-03-21T19:33:27.920Z,3.20
2023-03-21T19:34:21.653Z,3.10
2023-03-21T19:35:22.256Z,2.80
2023-03-21T19:36:22.796Z,3.30
2023-03-21T19:37:39.958Z,3.00
2023-03-21T19:38:21.668Z,2.90
2023-03-21T19:39:21.795Z,2.80
2023-03-21T19:40:22.142Z,2.80
2023-03-21T19:41:21.828Z,2.60
2023-03-21T19:42:21.705Z,2.90
2023-03-21T19:43:33.152Z,2.60
2023-03-21T19:44:21.743Z,2.80
2023-03-21T19:45:22.822Z,2.90
2023-03-21T19:46:21.665Z,2.50
2023-03-21T19:47:22.301Z,2.60
2023-03-21T19:48:22.342Z,3.00
2023-03-21T19:49:22.263Z,2.50
2023-03-21T19:51:20.238Z,2.60
2023-03-21T19:51:29.165Z,2.50
2023-03-21T19:52:21.901Z,2.50
2023-03-21T19:53:21.916Z,2.40
2023-03-21T19:54:25.117Z,2.40
2023-03-21T19:55:21.691Z,2.40
2023-03-21T19:56:27.379Z,2.50
2023-03-21T19:57:21.821Z,2.30
2023-03-21T19:58:22.821Z,2.50
2023-03-21T19:59:25.043Z,2.30
2023-03-21T20:00:21.791Z,2.40
2023-03-21T20:01:21.794Z,2.70
2023-03-21T20:02:34.940Z,2.50
2023-03-21T20:03:21.846Z,2.50
2023-03-21T20:04:21.811Z,2.80
2023-03-21T20:05:21.823Z,2.70
2023-03-21T20:06:24.853Z,2.80
2023-03-21T20:07:21.782Z,2.40
2023-03-21T20:08:21.979Z,2.20
2023-03-21T20:09:50.634Z,2.40
2023-03-21T20:10:22.001Z,2.50
2023-03-21T20:11:21.731Z,2.40
2023-03-21T20:12:21.788Z,2.60
2023-03-21T20:13:21.773Z,2.70
2023-03-21T20:14:22.020Z,2.50
2023-03-21T20:15:24.901Z,2.80
2023-03-21T20:16:22.009Z,2.50
2023-03-21T20:17:21.890Z,3.00
2023-03-21T20:18:21.910Z,2.90
2023-03-21T20:19:22.025Z,2.90
2023-03-21T20:20:22.198Z,2.90
2023-03-21T20:21:25.993Z,2.90
2023-03-21T20:22:35.950Z,2.70
2023-03-21T20:23:21.782Z,2.80
2023-03-21T20:25:27.080Z,2.60
2023-03-21T20:26:21.912Z,2.50
2023-03-21T20:27:21.801Z,2.50
2023-03-21T20:28:27.071Z,3.00
2023-03-21T20:30:07.449Z,3.00
2023-03-21T20:30:22.061Z,2.90
2023-03-21T20:31:25.188Z,3.00
2023-03-21T20:32:26.885Z,2.80
2023-03-21T20:33:23.922Z,3.00
2023-03-21T20:34:22.086Z,3.30
2023-03-21T20:35:47.982Z,2.50
2023-03-21T20:36:40.408Z,2.90
2023-03-21T20:37:21.924Z,2.70
2023-03-21T20:38:21.932Z,2.80
2023-03-21T20:39:22.086Z,3.00
2023-03-21T20:40:21.901Z,3.00
2023-03-21T20:41:23.647Z,2.70
2023-03-21T20:42:22.595Z,2.90
2023-03-21T20:44:13.980Z,2.50
2023-03-21T20:44:57.292Z,2.40
2023-03-21T20:45:22.226Z,2.70
2023-03-21T20:46:22.028Z,2.50
2023-03-21T20:47:21.831Z,2.70
2023-03-21T20:48:21.904Z,3.10
2023-03-21T20:49:22.337Z,3.10
2023-03-21T20:50:22.840Z,2.80
2023-03-21T20:53:00.823Z,2.60
2023-03-21T20:53:21.929Z,3.10
2023-03-21T20:54:21.836Z,3.10
2023-03-21T20:55:22.248Z,3.60
2023-03-21T20:56:21.951Z,3.90
2023-03-21T20:57:21.902Z,3.70
2023-03-21T20:58:50.822Z,3.40
2023-03-21T20:59:27.218Z,3.60
2023-03-21T21:00:21.928Z,3.40
2023-03-21T21:01:21.979Z,3.80
2023-03-21T21:02:21.909Z,4.30
2023-03-21T21:03:21.905Z,3.60
2023-03-21T21:04:23.137Z,3.50
2023-03-21T21:05:28.007Z,3.80
2023-03-21T21:06:21.974Z,3.70
2023-03-21T21:07:21.887Z,3.70
2023-03-21T21:08:21.904Z,4.00
2023-03-21T21:09:21.908Z,3.90
2023-03-21T21:10:22.377Z,3.90
2023-03-21T21:12:06.069Z,3.80
2023-03-21T21:12:21.895Z,3.20
2023-03-21T21:13:21.889Z,3.50
2023-03-21T21:14:21.958Z,3.60
2023-03-21T21:15:22.290Z,3.60
2023-03-21T21:16:21.909Z,3.60
2023-03-21T21:17:37.087Z,3.90
2023-03-21T21:18:22.013Z,4.10
2023-03-21T21:19:22.033Z,3.60
2023-03-21T21:20:22.101Z,3.80
2023-03-21T21:21:22.029Z,4.10
2023-03-21T21:22:21.941Z,4.10
2023-03-21T21:23:22.091Z,4.00
2023-03-21T21:24:22.027Z,4.00
2023-03-21T21:25:22.277Z,4.10
2023-03-21T21:26:22.019Z,3.80
2023-03-21T21:27:22.083Z,4.00
2023-03-21T21:28:21.939Z,4.00
2023-03-21T21:29:21.942Z,4.00
2023-03-21T21:30:22.400Z,4.20
2023-03-21T21:31:22.098Z,4.30
2023-03-21T21:32:21.946Z,4.10
2023-03-21T21:33:21.931Z,4.00
2023-03-21T21:34:21.949Z,4.30
2023-03-21T21:35:22.564Z,4.50
2023-03-21T21:36:22.116Z,4.20
2023-03-21T21:37:22.051Z,4.10
2023-03-21T21:38:21.943Z,4.30
2023-03-21T21:39:22.094Z,4.40
2023-03-21T21:40:21.963Z,4.00
2023-03-21T21:41:21.981Z,4.20
2023-03-21T21:42:21.966Z,4.50
2023-03-21T21:43:21.996Z,4.50
2023-03-21T21:44:21.970Z,4.10
2023-03-21T21:45:22.083Z,5.00
2023-03-21T21:46:22.126Z,5.00
2023-03-21T21:47:21.961Z,4.20
2023-03-21T21:48:22.051Z,4.20
2023-03-21T21:49:21.964Z,4.40
2023-03-21T21:50:22.555Z,4.10
2023-03-21T21:51:21.914Z,4.30
2023-03-21T21:52:21.946Z,4.50
2023-03-21T21:53:21.993Z,4.40
2023-03-21T21:54:22.078Z,4.40
2023-03-21T21:55:22.403Z,4.10
2023-03-21T21:56:22.106Z,3.80
2023-03-21T21:57:22.063Z,4.00
2023-03-21T21:58:22.071Z,4.50
2023-03-21T21:59:22.352Z,4.30
2023-03-21T22:00:22.410Z,4.60
2023-03-21T22:01:22.107Z,4.80
2023-03-21T22:02:21.950Z,4.30
2023-03-21T22:03:22.000Z,4.20
2023-03-21T22:04:22.104Z,4.50
2023-03-21T22:05:25.102Z,4.30
2023-03-21T22:06:21.992Z,4.40
2023-03-21T22:07:22.122Z,4.30
2023-03-21T22:08:22.132Z,4.40
2023-03-21T22:09:22.009Z,3.60
2023-03-21T22:10:22.689Z,3.60
2023-03-21T22:11:22.387Z,4.40
2023-03-21T22:12:22.201Z,4.40
2023-03-21T22:13:22.005Z,4.40
2023-03-21T22:14:22.314Z,4.10
2023-03-21T22:15:24.387Z,4.20
2023-03-21T22:16:22.186Z,4.50
2023-03-21T22:17:21.970Z,4.10
2023-03-21T22:18:22.109Z,4.30
2023-03-21T22:19:22.300Z,4.40
2023-03-21T22:20:22.221Z,4.20
2023-03-21T22:21:22.182Z,4.30
2023-03-21T22:22:22.139Z,4.50
2023-03-21T22:23:25.027Z,4.30
2023-03-21T22:24:22.276Z,4.20
2023-03-21T22:25:22.820Z,4.00
2023-03-21T22:26:22.379Z,4.10
2023-03-21T22:27:22.471Z,4.40
2023-03-21T22:28:25.235Z,4.40
2023-03-21T22:29:22.237Z,4.10
2023-03-21T22:30:31.871Z,3.80
2023-03-21T22:31:24.906Z,4.90
2023-03-21T22:32:22.160Z,4.90
2023-03-21T22:33:22.941Z,4.30
2023-03-21T22:34:22.295Z,4.30
2023-03-21T22:35:22.254Z,4.30
2023-03-21T22:36:25.193Z,4.50
2023-03-21T22:37:22.262Z,4.00
2023-03-21T22:38:22.611Z,4.40
2023-03-21T22:39:22.614Z,4.60
2023-03-21T22:40:22.190Z,4.60
2023-03-21T22:41:22.403Z,5.20
2023-03-21T22:42:22.446Z,4.80
2023-03-21T22:43:22.806Z,5.10
2023-03-21T22:44:22.332Z,5.10
2023-03-21T22:45:23.083Z,5.10
2023-03-21T22:46:22.472Z,4.60
2023-03-21T22:47:22.361Z,5.30
2023-03-21T22:48:22.218Z,5.00
2023-03-21T22:49:22.224Z,4.50
2023-03-21T22:50:22.693Z,4.90
2023-03-21T22:51:22.274Z,5.10
2023-03-21T22:52:22.277Z,5.30
2023-03-21T22:53:22.295Z,5.50
2023-03-21T22:54:22.284Z,5.20
2023-03-21T22:55:22.370Z,4.90
2023-03-21T22:56:22.341Z,5.50
2023-03-21T22:57:22.258Z,5.40
2023-03-21T22:58:22.219Z,5.00
2023-03-21T22:59:22.324Z,4.80
2023-03-21T23:00:22.296Z,4.70
2023-03-21T23:01:22.367Z,4.70
2023-03-21T23:02:22.312Z,5.20
2023-03-21T23:03:22.357Z,5.10
2023-03-21T23:04:22.294Z,5.10
2023-03-21T23:05:22.386Z,5.30
2023-03-21T23:06:22.366Z,5.20
2023-03-21T23:07:22.279Z,5.00
2023-03-21T23:08:22.340Z,5.00
2023-03-21T23:09:22.257Z,5.10
2023-03-21T23:10:22.695Z,4.90
2023-03-21T23:11:22.219Z,5.00
2023-03-21T23:12:22.374Z,5.50
2023-03-21T23:13:22.233Z,5.20
2023-03-21T23:14:22.255Z,5.20
2023-03-21T23:15:22.579Z,5.50
2023-03-21T23:16:22.478Z,5.70
2023-03-21T23:17:22.441Z,4.90
2023-03-21T23:18:22.366Z,5.90
2023-03-21T23:19:22.412Z,5.20
2023-03-21T23:20:22.651Z,5.70
2023-03-21T23:21:22.438Z,5.70
2023-03-21T23:22:22.366Z,5.60
2023-03-21T23:23:22.381Z,5.00
2023-03-21T23:24:22.279Z,5.40
2023-03-21T23:25:22.712Z,5.20
2023-03-21T23:26:22.377Z,5.50
2023-03-21T23:27:22.382Z,5.00
2023-03-21T23:28:22.340Z,5.60
2023-03-21T23:29:22.420Z,6.10
2023-03-21T23:30:22.404Z,5.80
2023-03-21T23:31:22.308Z,5.90
2023-03-21T23:32:22.268Z,5.20
2023-03-21T23:33:22.441Z,5.30
2023-03-21T23:34:22.464Z,5.30
2023-03-21T23:35:22.790Z,5.70
2023-03-21T23:36:22.500Z,6.00
2023-03-21T23:37:22.470Z,5.50
2023-03-21T23:38:22.323Z,5.10
2023-03-21T23:39:22.347Z,5.30
2023-03-21T23:40:22.583Z,5.50
2023-03-21T23:41:22.411Z,5.90
2023-03-21T23:42:22.439Z,5.30
2023-03-21T23:43:22.426Z,6.10
2023-03-21T23:44:22.330Z,5.80
2023-03-21T23:45:22.559Z,5.30
2023-03-21T23:46:22.484Z,5.60
2023-03-21T23:47:22.411Z,5.60
2023-03-21T23:48:22.443Z,6.00
2023-03-21T23:49:22.451Z,6.20
2023-03-21T23:50:22.459Z,5.60
2023-03-21T23:51:22.518Z,5.80
2023-03-21T23:52:22.442Z,5.60
2023-03-21T23:53:22.425Z,5.70
2023-03-21T23:54:22.528Z,5.50
2023-03-21T23:55:22.471Z,5.80
2023-03-21T23:56:22.644Z,5.60
2023-03-21T23:57:22.517Z,5.60
2023-03-21T23:58:22.591Z,5.50
2023-03-21T23:59:22.617Z,6.00
